Time;durP1;ratioP1;P1;durP2;ratioP2;P2;SDS_P1;SDS_P2;PMS_P1;PMS_P2;Temp;Humidity;BMP_temperature;BMP_pressure;BME280_temperature;BME280_humidity;BME280_pressure;Samples;Min_cycle;Max_cycle;Signal;HPM_P1;HPM_P2
2022/06/05 00:00:22;;;;;;;5.97;5.47;;;18.40;99.90;;;;;;4165093;28;20895;-77
2022/06/05 00:02:43;;;;;;;5.53;5.07;;;18.40;99.90;;;;;;4165283;28;20057;-77
2022/06/05 00:05:05;;;;;;;6.18;5.68;;;18.30;99.90;;;;;;4150924;28;20850;-77
2022/06/05 00:07:21;;;;;;;6.28;5.60;;;18.30;99.90;;;;;;4160326;28;20062;-78
2022/06/05 00:09:45;;;;;;;6.10;5.50;;;18.40;99.90;;;;;;4171555;28;20050;-78
2022/06/05 00:11:54;;;;;;;6.47;6.03;;;18.40;99.90;;;;;;4176913;28;20077;-78
2022/06/05 00:13:55;;;;;;;5.60;5.15;;;18.30;99.90;;;;;;4179201;28;20786;-79
2022/06/05 00:15:58;;;;;;;6.60;6.00;;;18.30;99.90;;;;;;4168861;28;20057;-78
2022/06/05 00:18:01;;;;;;;6.40;5.90;;;18.30;99.90;;;;;;4158189;28;20065;-78
2022/06/05 00:20:05;;;;;;;6.88;5.65;;;18.30;99.90;;;;;;4159513;28;20076;-78
2022/06/05 00:22:07;;;;;;;6.78;6.18;;;18.30;99.90;;;;;;4166794;28;20093;-78
2022/06/05 00:24:09;;;;;;;6.90;6.30;;;18.30;99.90;;;;;;4167543;28;20973;-78
2022/06/05 00:26:16;;;;;;;6.60;6.20;;;18.30;99.90;;;;;;4167938;28;20058;-79
2022/06/05 00:28:39;;;;;;;6.43;5.93;;;18.40;99.90;;;;;;4159128;28;20093;-78
2022/06/05 00:30:53;;;;;;;6.82;6.35;;;18.30;99.90;;;;;;4154741;28;20084;-79
2022/06/05 00:33:02;;;;;;;6.88;6.25;;;18.30;99.90;;;;;;4164364;28;20188;-78
2022/06/05 00:35:09;;;;;;;6.65;5.95;;;18.30;99.90;;;;;;4164480;28;20053;-78
2022/06/05 00:37:42;;;;;;;7.15;6.43;;;18.20;99.90;;;;;;4171632;28;20132;-78
2022/06/05 00:40:08;;;;;;;6.60;5.97;;;18.20;99.90;;;;;;4178788;28;20054;-78
2022/06/05 00:42:12;;;;;;;5.95;5.50;;;18.20;99.90;;;;;;4185701;28;20676;-78
2022/06/05 00:44:20;;;;;;;8.75;5.63;;;18.20;99.90;;;;;;4165675;28;20256;-78
2022/06/05 00:46:23;;;;;;;6.55;6.00;;;18.10;99.90;;;;;;4169670;28;20062;-78
2022/06/05 00:48:25;;;;;;;5.55;5.15;;;18.10;99.90;;;;;;4171819;28;20214;-78
2022/06/05 00:50:30;;;;;;;6.40;5.90;;;18.10;99.90;;;;;;4173589;28;20057;-78
2022/06/05 00:52:36;;;;;;;6.90;6.40;;;18.10;99.90;;;;;;4168539;28;20069;-78
2022/06/05 00:54:37;;;;;;;5.90;5.28;;;18.10;99.90;;;;;;4168486;28;20116;-78
2022/06/05 00:56:39;;;;;;;6.32;5.68;;;18.00;99.90;;;;;;4168169;28;20059;-78
2022/06/05 00:58:41;;;;;;;7.70;7.00;;;18.00;99.90;;;;;;4158459;28;21067;-78
2022/06/05 01:00:47;;;;;;;6.43;5.93;;;18.00;99.90;;;;;;4167894;28;20077;-78
2022/06/05 01:02:52;;;;;;;6.35;5.90;;;18.00;99.90;;;;;;4168121;28;20062;-78
2022/06/05 01:04:54;;;;;;;8.60;6.50;;;18.00;99.90;;;;;;4162742;28;20061;-78
2022/06/05 01:06:56;;;;;;;7.32;6.82;;;18.00;99.90;;;;;;4169727;28;20863;-78
2022/06/05 01:08:57;;;;;;;6.82;5.70;;;18.00;99.90;;;;;;4170969;28;20049;-78
2022/06/05 01:11:21;;;;;;;6.70;6.10;;;18.00;99.90;;;;;;4172371;28;20061;-77
2022/06/05 01:13:35;;;;;;;6.50;6.00;;;18.00;99.90;;;;;;4171096;28;20050;-78
2022/06/05 01:15:57;;;;;;;6.70;6.10;;;18.00;99.90;;;;;;4200037;22;20319;-78
2022/06/05 01:18:27;;;;;;;6.13;5.70;;;17.90;99.90;;;;;;4199074;28;20168;-79
2022/06/05 01:20:39;;;;;;;6.20;5.70;;;17.90;99.90;;;;;;4199887;28;20061;-78
2022/06/05 01:23:12;;;;;;;7.22;5.80;;;17.90;99.90;;;;;;4200280;28;20416;-78
2022/06/05 01:25:56;;;;;;;5.47;5.07;;;17.90;99.90;;;;;;4196819;28;20093;-78
2022/06/05 01:28:01;;;;;;;5.38;4.97;;;17.90;99.90;;;;;;4199439;28;20056;-78
2022/06/05 01:30:11;;;;;;;6.47;5.95;;;17.90;99.90;;;;;;4212248;28;20107;-78
2022/06/05 01:32:34;;;;;;;6.05;5.65;;;17.80;99.90;;;;;;4199754;28;20086;-78
2022/06/05 01:34:57;;;;;;;8.10;5.95;;;17.80;99.90;;;;;;4200744;28;20045;-78
2022/06/05 01:37:16;;;;;;;6.70;6.28;;;17.70;99.90;;;;;;4200937;28;20092;-77
2022/06/05 01:39:39;;;;;;;6.40;5.95;;;17.70;99.90;;;;;;4198980;28;20922;-78
2022/06/05 01:41:51;;;;;;;6.60;6.07;;;17.60;99.90;;;;;;4198588;28;20649;-77
2022/06/05 01:43:56;;;;;;;7.43;6.82;;;17.60;99.90;;;;;;4214975;28;20102;-78
2022/06/05 01:46:01;;;;;;;6.85;6.30;;;17.70;99.90;;;;;;4213916;28;20025;-78
2022/06/05 01:48:05;;;;;;;6.65;6.05;;;17.60;99.90;;;;;;4196797;28;20063;-78
2022/06/05 01:50:21;;;;;;;7.40;6.80;;;17.60;99.90;;;;;;4198949;28;20091;-78
2022/06/05 01:52:35;;;;;;;6.47;6.00;;;17.60;99.90;;;;;;4190964;28;20095;-78
2022/06/05 01:54:52;;;;;;;8.02;7.28;;;17.60;99.90;;;;;;4196384;28;20887;-77
2022/06/05 01:56:58;;;;;;;6.43;5.93;;;17.60;99.90;;;;;;4196074;28;20068;-78
2022/06/05 01:59:10;;;;;;;8.07;7.40;;;17.50;99.90;;;;;;4199247;28;20083;-78
2022/06/05 02:01:19;;;;;;;6.22;5.82;;;17.50;99.90;;;;;;4198823;28;20842;-78
2022/06/05 02:03:55;;;;;;;6.25;5.60;;;17.40;99.90;;;;;;4200351;28;20171;-78
2022/06/05 02:06:08;;;;;;;11.98;10.15;;;17.40;99.90;;;;;;4193480;28;20759;-78
2022/06/05 02:08:36;;;;;;;10.20;9.20;;;17.40;99.90;;;;;;4201554;28;20146;-78
2022/06/05 02:10:58;;;;;;;7.97;7.32;;;17.40;99.90;;;;;;4200922;28;20100;-78
2022/06/05 02:13:01;;;;;;;10.55;9.45;;;17.40;99.90;;;;;;4202357;28;20060;-78
2022/06/05 02:15:04;;;;;;;8.93;8.13;;;17.40;99.90;;;;;;4197955;28;20045;-78
2022/06/05 02:17:06;;;;;;;7.15;6.65;;;17.40;99.90;;;;;;4197286;28;20172;-78
2022/06/05 02:19:12;;;;;;;7.63;6.88;;;17.40;99.90;;;;;;4198076;28;20060;-78
2022/06/05 02:21:14;;;;;;;6.85;6.25;;;17.40;99.90;;;;;;4199329;28;21299;-78
2022/06/05 02:23:18;;;;;;;6.65;6.18;;;17.40;99.90;;;;;;4200028;28;20053;-78
2022/06/05 02:25:24;;;;;;;6.90;6.40;;;17.40;99.90;;;;;;4199027;28;20080;-78
2022/06/05 02:27:26;;;;;;;7.32;6.63;;;17.40;99.90;;;;;;4198459;28;20625;-78
2022/06/05 02:29:28;;;;;;;8.40;7.70;;;17.40;99.90;;;;;;4198862;28;20059;-78
2022/06/05 02:31:58;;;;;;;8.38;7.22;;;17.40;99.90;;;;;;4198985;28;20079;-78
2022/06/05 02:33:59;;;;;;;7.93;7.13;;;17.40;99.90;;;;;;4197800;28;20171;-78
2022/06/05 02:36:25;;;;;;;7.95;7.15;;;17.40;99.90;;;;;;4195830;28;20884;-78
2022/06/05 02:38:52;;;;;;;10.45;6.90;;;17.40;99.90;;;;;;4194213;28;20056;-78
2022/06/05 02:41:08;;;;;;;7.18;6.45;;;17.50;99.90;;;;;;4206868;28;20080;-77
2022/06/05 02:43:29;;;;;;;7.32;6.75;;;17.50;99.90;;;;;;4200850;28;20163;-79
2022/06/05 02:45:50;;;;;;;8.13;6.70;;;17.50;99.90;;;;;;4197674;28;20682;-78
2022/06/05 02:48:01;;;;;;;7.20;6.68;;;17.50;99.90;;;;;;4213358;28;20206;-78
2022/06/05 02:50:10;;;;;;;;;;;17.50;99.90;;;;;;4200268;28;20171;-77
2022/06/05 02:52:12;;;;;;;7.70;7.03;;;17.60;99.90;;;;;;4199125;28;19928;-78
2022/06/05 02:54:20;;;;;;;8.35;7.65;;;17.50;99.90;;;;;;4199585;28;20729;-78
2022/06/05 02:56:23;;;;;;;7.30;6.78;;;17.50;99.90;;;;;;4199803;28;20102;-78
2022/06/05 02:58:25;;;;;;;8.05;7.35;;;17.50;99.90;;;;;;4199915;28;20175;-78
2022/06/05 03:00:29;;;;;;;6.75;6.28;;;17.50;99.90;;;;;;4207037;28;20142;-77
2022/06/05 03:04:51;;;;;;;7.82;7.22;;;17.50;99.90;;;;;;4202346;28;20056;-79
2022/06/05 03:06:53;;;;;;;7.22;6.55;;;17.50;99.90;;;;;;4199793;28;20171;-78
2022/06/05 03:08:56;;;;;;;8.30;7.57;;;17.50;99.90;;;;;;4198585;28;20064;-78
2022/06/05 03:10:57;;;;;;;9.38;7.63;;;17.50;99.90;;;;;;4199608;28;20057;-79
2022/06/05 03:13:01;;;;;;;8.70;7.90;;;17.50;99.90;;;;;;4198505;28;20151;-78
2022/06/05 03:15:04;;;;;;;9.43;8.63;;;17.50;99.90;;;;;;4199380;28;20051;-78
2022/06/05 03:17:06;;;;;;;9.15;8.27;;;17.50;99.90;;;;;;4199810;28;20061;-79
2022/06/05 03:19:08;;;;;;;9.07;8.38;;;17.60;99.90;;;;;;4199563;28;20927;-78
2022/06/05 03:21:10;;;;;;;8.82;7.90;;;17.60;99.90;;;;;;4199637;28;20052;-78
2022/06/05 03:23:12;;;;;;;9.25;8.52;;;17.60;99.90;;;;;;4201291;28;20076;-78
2022/06/05 03:25:21;;;;;;;8.48;7.57;;;17.60;99.90;;;;;;4200742;28;20250;-77
2022/06/05 03:27:23;;;;;;;8.38;7.70;;;17.60;99.90;;;;;;4203619;28;20065;-78
2022/06/05 03:29:25;;;;;;;9.02;8.32;;;17.60;99.90;;;;;;4202882;28;20057;-79
2022/06/05 03:31:26;;;;;;;9.35;8.43;;;17.60;99.90;;;;;;4200376;28;20103;-79
2022/06/05 03:33:28;;;;;;;7.57;7.07;;;17.60;99.90;;;;;;4199610;28;20088;-79
2022/06/05 03:35:30;;;;;;;8.50;7.65;;;17.60;99.90;;;;;;4199676;28;20053;-79
2022/06/05 03:37:32;;;;;;;8.63;7.18;;;17.60;99.90;;;;;;4200130;28;20063;-78
2022/06/05 03:39:34;;;;;;;7.97;6.90;;;17.60;99.90;;;;;;4198066;28;20057;-79
2022/06/05 03:41:36;;;;;;;6.63;6.10;;;17.60;99.90;;;;;;4198768;28;20063;-78
2022/06/05 03:43:38;;;;;;;8.98;8.07;;;17.70;99.90;;;;;;4199623;28;20918;-79
2022/06/05 03:45:41;;;;;;;8.60;7.90;;;17.70;99.90;;;;;;4200053;28;20049;-79
2022/06/05 03:47:43;;;;;;;8.82;8.20;;;17.60;99.90;;;;;;4199733;28;21173;-79
2022/06/05 03:49:45;;;;;;;8.60;7.90;;;17.60;99.90;;;;;;4198167;28;20103;-79
2022/06/05 03:51:47;;;;;;;7.55;7.00;;;17.60;99.90;;;;;;4197612;28;20190;-78
2022/06/05 03:53:49;;;;;;;7.20;6.60;;;17.60;99.90;;;;;;4198710;28;20907;-78
2022/06/05 03:55:51;;;;;;;6.97;6.38;;;17.60;99.90;;;;;;4198030;28;20915;-78
2022/06/05 03:57:53;;;;;;;7.53;6.75;;;17.60;99.90;;;;;;4196479;28;20112;-78
2022/06/05 03:59:54;;;;;;;7.10;6.47;;;17.70;99.90;;;;;;4195152;28;20061;-78
2022/06/05 04:01:56;;;;;;;7.50;7.00;;;17.70;99.90;;;;;;4198980;28;20057;-78
2022/06/05 04:03:58;;;;;;;8.15;7.20;;;17.70;99.90;;;;;;4215230;28;20029;-78
2022/06/05 04:06:00;;;;;;;7.03;6.53;;;17.70;99.90;;;;;;4202338;28;20053;-77
2022/06/05 04:08:02;;;;;;;8.52;7.75;;;17.60;99.90;;;;;;4198065;28;20884;-80
2022/06/05 04:10:04;;;;;;;9.20;8.50;;;17.50;99.90;;;;;;4198268;28;20836;-78
2022/06/05 04:12:06;;;;;;;10.68;9.70;;;17.40;99.90;;;;;;4196707;28;20171;-78
2022/06/05 04:14:08;;;;;;;10.77;9.40;;;17.30;99.90;;;;;;4197985;28;20053;-78
2022/06/05 04:16:24;;;;;;;9.93;9.07;;;17.10;99.90;;;;;;4196404;28;20176;-78
2022/06/05 04:18:27;;;;;;;11.65;10.50;;;17.10;99.90;;;;;;4194148;28;20088;-78
2022/06/05 04:20:29;;;;;;;18.10;13.18;;;17.00;99.90;;;;;;4198661;28;20066;-78
2022/06/05 04:22:30;;;;;;;19.90;14.38;;;17.00;99.90;;;;;;4201581;28;20642;-77
2022/06/05 04:24:33;;;;;;;11.75;10.65;;;17.00;99.90;;;;;;4204383;28;20063;-78
2022/06/05 04:26:35;;;;;;;10.68;9.82;;;17.00;99.90;;;;;;4194405;28;20103;-79
2022/06/05 04:28:37;;;;;;;10.65;9.75;;;16.90;99.90;;;;;;4199536;28;20179;-78
2022/06/05 04:30:40;;;;;;;11.93;10.68;;;16.90;99.90;;;;;;4198804;28;20769;-79
2022/06/05 04:32:42;;;;;;;12.52;9.95;;;16.80;99.90;;;;;;4197516;28;20063;-78
2022/06/05 04:34:44;;;;;;;11.88;10.65;;;16.90;99.90;;;;;;4196409;28;20053;-79
2022/06/05 04:36:46;;;;;;;12.65;11.40;;;16.90;99.90;;;;;;4198613;28;20821;-77
2022/06/05 04:38:48;;;;;;;12.05;10.90;;;16.90;99.90;;;;;;4200096;28;20120;-78
2022/06/05 04:40:50;;;;;;;11.05;10.13;;;16.90;99.90;;;;;;4201524;28;20605;-79
2022/06/05 04:42:51;;;;;;;11.85;10.63;;;16.90;99.90;;;;;;4199656;28;20088;-78
2022/06/05 04:44:53;;;;;;;12.48;11.15;;;16.90;99.90;;;;;;4199703;28;20057;-78
2022/06/05 04:46:55;;;;;;;11.73;10.65;;;16.90;99.90;;;;;;4201165;28;20061;-79
2022/06/05 04:48:57;;;;;;;12.13;10.98;;;16.90;99.90;;;;;;4198493;28;20100;-79
2022/06/05 04:51:02;;;;;;;11.52;10.43;;;16.90;99.90;;;;;;4198023;28;20057;-79
2022/06/05 04:53:04;;;;;;;11.57;10.50;;;16.90;99.90;;;;;;4195511;28;20143;-77
2022/06/05 04:55:07;;;;;;;11.57;10.68;;;16.90;99.90;;;;;;4198513;28;20064;-79
2022/06/05 04:57:09;;;;;;;12.07;10.73;;;16.90;99.90;;;;;;4198673;28;20053;-79
2022/06/05 04:59:11;;;;;;;12.85;11.57;;;16.90;99.90;;;;;;4198657;28;20056;-78
2022/06/05 05:01:17;;;;;;;14.00;11.10;;;16.90;99.90;;;;;;4209542;28;20060;-79
2022/06/05 05:03:18;;;;;;;12.35;11.30;;;16.90;99.90;;;;;;4207713;28;20056;-78
2022/06/05 05:05:20;;;;;;;12.73;11.52;;;16.90;99.90;;;;;;4196691;28;20063;-78
2022/06/05 05:07:22;;;;;;;13.73;12.50;;;16.90;99.90;;;;;;4190254;28;20056;-78
2022/06/05 05:09:23;;;;;;;16.13;14.52;;;16.90;99.90;;;;;;4195067;28;20061;-78
2022/06/05 05:11:26;;;;;;;15.48;13.93;;;16.80;99.90;;;;;;4195705;28;20063;-80
2022/06/05 05:13:28;;;;;;;17.40;15.23;;;16.80;99.90;;;;;;4196962;28;20934;-79
2022/06/05 05:15:29;;;;;;;15.27;13.75;;;16.80;99.90;;;;;;4193172;28;20045;-78
2022/06/05 05:17:31;;;;;;;17.50;14.82;;;16.70;99.90;;;;;;4193125;28;20064;-77
2022/06/05 05:19:33;;;;;;;16.08;14.57;;;16.70;99.90;;;;;;4195600;28;20061;-78
2022/06/05 05:21:35;;;;;;;18.25;16.33;;;16.60;99.90;;;;;;4193931;28;20104;-77
2022/06/05 05:23:37;;;;;;;18.05;16.27;;;16.60;99.90;;;;;;4191363;28;20053;-78
2022/06/05 05:25:40;;;;;;;16.80;15.10;;;16.60;99.90;;;;;;4193026;28;20060;-78
2022/06/05 05:27:42;;;;;;;18.42;16.42;;;16.60;99.90;;;;;;4198420;28;20096;-78
2022/06/05 05:29:43;;;;;;;16.20;14.48;;;16.70;99.90;;;;;;4195400;28;20053;-78
2022/06/05 05:31:45;;;;;;;16.98;13.57;;;16.80;99.90;;;;;;4197313;28;20057;-78
2022/06/05 05:33:51;;;;;;;17.13;14.60;;;16.80;99.90;;;;;;4205598;28;20324;-79
2022/06/05 05:35:54;;;;;;;24.08;14.07;;;16.70;99.90;;;;;;4200036;28;20156;-79
2022/06/05 05:37:55;;;;;;;16.80;14.98;;;16.70;99.90;;;;;;4200448;28;20072;-80
2022/06/05 05:42:20;;;;;;;16.30;14.63;;;16.70;99.90;;;;;;4208109;28;20080;-80
2022/06/05 05:44:27;;;;;;;16.65;15.07;;;16.70;99.90;;;;;;4197921;28;20057;-80
2022/06/05 05:46:47;;;;;;;18.85;15.95;;;16.80;99.90;;;;;;4202148;28;20198;-79
2022/06/05 05:48:49;;;;;;;15.30;13.82;;;16.80;99.90;;;;;;4208133;28;20053;-79
2022/06/05 05:50:51;;;;;;;14.88;13.35;;;16.80;99.90;;;;;;4205461;28;20156;-80
2022/06/05 05:52:52;;;;;;;14.98;13.48;;;16.80;99.90;;;;;;4205405;28;20107;-79
2022/06/05 05:54:55;;;;;;;16.70;13.75;;;16.80;99.90;;;;;;4204234;28;20658;-79
2022/06/05 05:56:56;;;;;;;14.55;13.25;;;16.80;99.90;;;;;;4203727;28;20135;-79
2022/06/05 05:58:59;;;;;;;17.60;13.75;;;16.80;99.90;;;;;;4212573;28;20040;-79
2022/06/05 06:01:06;;;;;;;14.35;12.50;;;16.80;99.90;;;;;;4211089;28;20900;-79
2022/06/05 06:03:08;;;;;;;14.18;12.88;;;16.70;99.90;;;;;;4200840;28;20062;-79
2022/06/05 06:05:16;;;;;;;18.05;15.02;;;16.60;99.90;;;;;;4210159;28;20116;-78
2022/06/05 06:07:18;;;;;;;16.63;14.80;;;16.50;99.90;;;;;;4218131;28;20108;-78
2022/06/05 06:09:20;;;;;;;15.38;13.82;;;16.50;99.90;;;;;;4200325;28;20052;-78
2022/06/05 06:11:23;;;;;;;14.70;13.20;;;16.40;99.90;;;;;;4201411;28;20061;-77
2022/06/05 06:13:25;;;;;;;13.75;12.30;;;16.40;99.90;;;;;;4201094;28;20887;-78
2022/06/05 06:15:26;;;;;;;14.85;13.55;;;16.30;99.90;;;;;;4196246;28;20048;-77
2022/06/05 06:17:28;;;;;;;14.82;13.52;;;16.30;99.90;;;;;;4199637;28;20085;-77
2022/06/05 06:19:30;;;;;;;13.50;12.07;;;16.30;99.90;;;;;;4199403;28;20091;-78
2022/06/05 06:21:33;;;;;;;12.65;11.35;;;16.30;99.90;;;;;;4196940;28;20059;-78
2022/06/05 06:23:43;;;;;;;12.00;10.82;;;16.30;99.90;;;;;;4197773;28;20753;-78
2022/06/05 06:25:45;;;;;;;12.38;11.15;;;16.40;99.90;;;;;;4199027;28;20889;-78
2022/06/05 06:27:46;;;;;;;9.05;8.25;;;16.40;99.90;;;;;;4200011;28;20888;-78
2022/06/05 06:29:48;;;;;;;12.43;8.75;;;16.40;99.90;;;;;;4200100;28;20060;-78
2022/06/05 06:31:50;;;;;;;8.80;8.07;;;16.40;99.90;;;;;;4199864;28;20910;-78
2022/06/05 06:33:52;;;;;;;8.65;7.70;;;16.40;99.90;;;;;;4199550;28;20101;-78
2022/06/05 06:35:53;;;;;;;7.53;6.82;;;16.40;99.90;;;;;;4200673;28;20103;-78
2022/06/05 06:37:55;;;;;;;10.40;7.88;;;16.40;99.90;;;;;;4202014;28;20155;-78
2022/06/05 06:39:57;;;;;;;8.45;7.13;;;16.40;99.90;;;;;;4200999;28;20064;-78
2022/06/05 06:41:59;;;;;;;5.13;4.20;;;16.40;99.90;;;;;;4200076;28;20056;-78
2022/06/05 06:44:03;;;;;;;5.68;4.35;;;16.40;99.90;;;;;;4198610;28;20168;-78
2022/06/05 06:46:06;;;;;;;8.77;6.13;;;16.40;99.90;;;;;;4200353;28;20079;-79
2022/06/05 06:48:08;;;;;;;9.30;7.13;;;16.40;99.90;;;;;;4201254;28;20059;-78
2022/06/05 06:50:12;;;;;;;10.75;4.93;;;16.40;99.90;;;;;;4173817;28;20830;-78
2022/06/05 06:52:14;;;;;;;4.72;3.13;;;16.40;99.90;;;;;;4198561;28;20103;-77
2022/06/05 06:54:16;;;;;;;5.20;4.45;;;16.30;99.90;;;;;;4197665;28;20087;-78
2022/06/05 06:56:31;;;;;;;5.80;5.22;;;16.30;99.90;;;;;;4206336;28;20047;-77
2022/06/05 06:58:33;;;;;;;7.82;4.93;;;16.30;99.90;;;;;;4217113;28;20120;-78
2022/06/05 07:00:35;;;;;;;10.05;6.45;;;16.30;99.90;;;;;;4199598;28;20160;-79
2022/06/05 07:02:36;;;;;;;7.65;5.13;;;16.40;99.90;;;;;;4198742;28;20057;-78
2022/06/05 07:04:38;;;;;;;10.00;5.10;;;16.40;99.90;;;;;;4200166;28;20087;-78
2022/06/05 07:06:40;;;;;;;6.72;5.85;;;16.40;99.90;;;;;;4199630;28;20096;-78
2022/06/05 07:08:43;;;;;;;6.55;5.90;;;16.30;99.90;;;;;;4202029;28;20056;-78
2022/06/05 07:10:45;;;;;;;8.57;6.95;;;16.30;99.90;;;;;;4199928;28;20751;-78
2022/06/05 07:12:47;;;;;;;10.23;6.03;;;16.30;99.90;;;;;;4199495;28;20196;-78
2022/06/05 07:14:49;;;;;;;8.93;4.15;;;16.30;99.90;;;;;;4196497;28;20101;-77
2022/06/05 07:16:51;;;;;;;4.90;3.78;;;16.30;99.90;;;;;;4229568;22;20057;-78
2022/06/05 07:18:53;;;;;;;2.85;2.58;;;16.40;99.90;;;;;;4218304;28;20813;-78
2022/06/05 07:20:54;;;;;;;6.00;4.68;;;16.40;99.90;;;;;;4214492;28;20061;-78
2022/06/05 07:22:56;;;;;;;7.70;4.35;;;16.40;99.90;;;;;;4208865;28;20155;-79
2022/06/05 07:24:58;;;;;;;6.22;4.20;;;16.40;99.90;;;;;;4208256;28;20147;-78
2022/06/05 07:27:00;;;;;;;6.63;5.22;;;16.40;99.90;;;;;;4214988;28;20934;-78
2022/06/05 07:29:02;;;;;;;10.10;5.90;;;16.30;99.90;;;;;;4212649;28;20044;-77
2022/06/05 07:31:05;;;;;;;6.38;4.68;;;16.40;99.90;;;;;;4208913;28;20060;-78
2022/06/05 07:33:07;;;;;;;5.05;3.40;;;16.40;99.90;;;;;;4216908;28;20183;-78
2022/06/05 07:35:11;;;;;;;3.38;3.08;;;16.40;99.90;;;;;;4213837;28;20100;-78
2022/06/05 07:37:14;;;;;;;6.43;3.75;;;16.40;99.90;;;;;;4219660;28;20061;-77
2022/06/05 07:39:15;;;;;;;3.90;3.38;;;16.40;99.90;;;;;;4218347;28;20044;-78
2022/06/05 07:41:30;;;;;;;5.57;3.10;;;16.50;99.90;;;;;;4218257;28;20112;-77
2022/06/05 07:43:33;;;;;;;9.35;3.83;;;16.50;99.90;;;;;;4221146;28;20167;-76
2022/06/05 07:45:35;;;;;;;4.95;4.55;;;16.60;99.90;;;;;;4213450;28;20885;-77
2022/06/05 07:47:37;;;;;;;6.75;3.78;;;16.60;99.90;;;;;;4213543;28;20151;-77
2022/06/05 07:49:40;;;;;;;5.30;4.05;;;16.60;99.90;;;;;;4219711;28;20044;-78
2022/06/05 07:56:23;;;;;;;6.10;4.32;;;16.70;99.90;;;;;;4214927;28;20060;-77
2022/06/05 07:58:25;;;;;;;4.15;3.65;;;16.80;99.90;;;;;;4212199;28;20067;-77
2022/06/05 08:00:32;;;;;;;4.45;3.67;;;16.80;99.90;;;;;;4208760;28;20095;-77
2022/06/05 08:02:36;;;;;;;5.13;3.38;;;16.90;99.90;;;;;;4212625;28;20159;-77
2022/06/05 08:04:39;;;;;;;4.28;3.78;;;17.00;99.90;;;;;;4215646;28;20794;-77
2022/06/05 08:06:41;;;;;;;5.22;2.80;;;17.10;99.90;;;;;;4215182;28;20946;-79
2022/06/05 08:08:43;;;;;;;5.22;3.25;;;17.10;99.90;;;;;;4211880;28;20111;-78
2022/06/05 08:10:45;;;;;;;4.38;2.83;;;17.20;99.90;;;;;;4215575;28;20159;-78
2022/06/05 08:12:48;;;;;;;3.17;2.63;;;17.20;99.90;;;;;;4212124;28;20061;-78
2022/06/05 08:14:52;;;;;;;2.55;2.35;;;17.30;99.90;;;;;;4215355;28;20795;-78
2022/06/05 08:16:55;;;;;;;3.70;2.80;;;17.40;99.90;;;;;;4228446;27;20063;-78
2022/06/05 08:18:57;;;;;;;4.18;2.60;;;17.50;99.90;;;;;;4210771;28;20964;-78
2022/06/05 08:20:59;;;;;;;6.07;2.92;;;17.60;99.90;;;;;;4219476;28;20818;-78
2022/06/05 08:23:02;;;;;;;2.13;2.03;;;17.80;99.90;;;;;;4214638;28;20977;-77
2022/06/05 08:25:04;;;;;;;2.58;2.30;;;18.00;99.90;;;;;;4212065;28;20112;-77
2022/06/05 08:27:13;;;;;;;2.35;2.20;;;18.10;99.90;;;;;;4211902;28;20107;-78
2022/06/05 08:29:15;;;;;;;6.43;3.03;;;18.20;99.90;;;;;;4212802;28;20261;-77
2022/06/05 08:31:17;;;;;;;2.92;2.42;;;18.40;99.90;;;;;;4212926;28;20061;-78
2022/06/05 08:33:19;;;;;;;1.83;1.73;;;18.50;99.90;;;;;;4218420;28;20673;-77
2022/06/05 08:35:21;;;;;;;5.85;2.08;;;18.50;99.90;;;;;;4214222;28;20068;-78
2022/06/05 08:42:40;;;;;;;2.15;1.90;;;18.70;99.90;;;;;;4210762;28;20757;-77
2022/06/05 08:44:57;;;;;;;2.63;1.73;;;18.80;99.90;;;;;;4189660;28;20065;-78
2022/06/05 08:47:12;;;;;;;2.75;1.73;;;18.90;99.90;;;;;;4209625;28;20178;-77
2022/06/05 08:49:30;;;;;;;2.40;1.90;;;19.00;99.90;;;;;;4222910;28;20096;-76
2022/06/05 08:51:59;;;;;;;4.65;1.77;;;19.30;99.90;;;;;;4203053;28;20079;-76
2022/06/05 08:54:18;;;;;;;2.53;1.20;;;19.50;99.90;;;;;;4210820;28;20053;-76
2022/06/05 08:56:31;;;;;;;2.22;1.10;;;19.70;99.90;;;;;;4217938;28;20853;-79
2022/06/05 08:58:46;;;;;;;5.05;1.45;;;19.80;99.90;;;;;;4212790;28;20052;-74
2022/06/05 09:00:55;;;;;;;2.10;1.33;;;19.80;99.90;;;;;;4215001;28;20602;-77
2022/06/05 09:03:05;;;;;;;1.23;1.13;;;19.80;99.90;;;;;;4212195;28;20099;-75
2022/06/05 09:05:25;;;;;;;3.85;1.48;;;19.90;99.90;;;;;;4216180;28;20099;-77
2022/06/05 09:07:42;;;;;;;2.97;1.17;;;20.10;99.90;;;;;;4217984;28;20300;-78
2022/06/05 09:09:50;;;;;;;1.67;1.58;;;20.20;99.90;;;;;;4209693;28;20091;-76
2022/06/05 09:12:06;;;;;;;3.53;1.73;;;20.40;99.90;;;;;;4210320;28;20056;-75
2022/06/05 09:14:48;;;;;;;1.35;1.13;;;20.70;99.90;;;;;;4212065;28;20118;-73
2022/06/05 09:16:57;;;;;;;1.75;1.23;;;20.80;99.90;;;;;;4207789;28;20150;-77
2022/06/05 09:18:59;;;;;;;1.88;1.25;;;20.80;99.90;;;;;;4216180;28;20566;-73
2022/06/05 09:21:09;;;;;;;1.55;1.23;;;20.80;99.90;;;;;;4209315;28;20155;-74
2022/06/05 09:23:22;;;;;;;1.20;1.07;;;20.80;99.90;;;;;;4202519;28;20053;-71
2022/06/05 09:25:39;;;;;;;1.52;0.98;;;20.60;99.90;;;;;;4204228;28;20642;-73
2022/06/05 09:28:00;;;;;;;1.85;1.00;;;20.50;99.90;;;;;;4206665;28;20056;-70
2022/06/05 09:30:10;;;;;;;2.63;1.05;;;20.50;99.90;;;;;;4203047;28;20168;-68
2022/06/05 09:32:27;;;;;;;2.55;1.10;;;20.50;99.90;;;;;;4205377;28;20099;-70
2022/06/05 09:34:31;;;;;;;1.55;1.13;;;20.50;99.90;;;;;;4205631;28;20068;-69
2022/06/05 09:36:41;;;;;;;3.40;1.23;;;20.60;99.90;;;;;;4203640;28;20791;-69
2022/06/05 09:39:01;;;;;;;3.50;1.00;;;20.70;99.90;;;;;;4206201;28;20179;-70
2022/06/05 09:41:21;;;;;;;4.15;0.88;;;20.80;99.90;;;;;;4209712;28;20894;-70
2022/06/05 09:43:42;;;;;;;1.45;0.70;;;20.90;99.90;;;;;;4210401;28;20125;-70
2022/06/05 09:46:16;;;;;;;1.40;0.68;;;21.20;99.90;;;;;;4200501;28;20045;-70
2022/06/05 09:48:37;;;;;;;1.58;0.80;;;21.30;99.90;;;;;;4210080;28;20052;-70
2022/06/05 09:50:39;;;;;;;3.63;1.40;;;21.40;99.90;;;;;;4207717;28;20918;-70
2022/06/05 09:52:40;;;;;;;1.40;0.90;;;21.70;99.90;;;;;;4201196;28;20067;-70
2022/06/05 09:54:52;;;;;;;1.60;0.90;;;21.90;99.90;;;;;;4206754;28;20072;-70
2022/06/05 09:59:45;;;;;;;2.55;1.02;;;21.90;99.90;;;;;;4204328;28;20092;-70
2022/06/05 10:01:54;;;;;;;1.75;0.80;;;22.10;99.90;;;;;;4201738;28;20091;-70
2022/06/05 10:03:58;;;;;;;2.00;0.80;;;22.40;99.90;;;;;;4204776;28;20057;-70
2022/06/05 10:06:10;;;;;;;2.90;0.80;;;22.80;99.00;;;;;;4209782;28;20126;-70
2022/06/05 10:08:26;;;;;;;2.25;0.90;;;22.90;98.40;;;;;;4207671;28;20906;-70
2022/06/05 10:10:36;;;;;;;0.90;0.80;;;22.90;97.40;;;;;;4206769;28;20191;-70
2022/06/05 10:12:47;;;;;;;2.77;0.80;;;22.80;97.80;;;;;;4203373;28;20053;-70
2022/06/05 10:14:51;;;;;;;;;;;22.80;98.20;;;;;;4202655;28;20438;-70
2022/06/05 10:17:14;;;;;;;2.67;0.93;;;22.70;96.90;;;;;;4207032;28;20002;-70
2022/06/05 10:19:41;;;;;;;1.58;0.95;;;22.60;97.60;;;;;;4205143;28;20057;-70
2022/06/05 10:21:53;;;;;;;1.95;0.75;;;22.50;97.30;;;;;;4205414;28;20096;-71
2022/06/05 10:24:03;;;;;;;2.88;1.05;;;22.30;97.70;;;;;;4204516;28;21195;-70
2022/06/05 10:26:17;;;;;;;1.27;0.88;;;22.00;98.20;;;;;;4205575;28;20091;-70
2022/06/05 10:28:28;;;;;;;1.05;0.90;;;21.90;98.80;;;;;;4212070;28;20116;-71
2022/06/05 10:30:35;;;;;;;3.53;1.15;;;21.70;99.90;;;;;;4210827;28;20151;-70
2022/06/05 10:33:01;;;;;;;1.33;1.00;;;21.40;99.90;;;;;;4208992;28;20167;-70
2022/06/05 10:35:47;;;;;;;1.60;1.15;;;21.10;99.90;;;;;;4211488;28;20061;-71
2022/06/05 10:37:56;;;;;;;2.10;1.33;;;20.90;99.90;;;;;;4136352;28;20326;-72
2022/06/05 10:40:24;;;;;;;5.10;1.95;;;20.70;99.90;;;;;;4181291;28;20687;-72
2022/06/05 10:42:29;;;;;;;3.33;2.10;;;20.50;99.90;;;;;;4209387;28;21035;-70
2022/06/05 10:45:05;;;;;;;2.97;2.47;;;20.30;99.90;;;;;;4208516;28;20057;-70
2022/06/05 10:47:27;;;;;;;3.15;2.63;;;20.00;99.90;;;;;;4209525;28;20793;-70
2022/06/05 10:49:43;;;;;;;5.38;2.67;;;19.70;99.90;;;;;;4213211;28;20099;-70
2022/06/05 10:51:53;;;;;;;3.35;2.60;;;19.60;99.90;;;;;;4207223;28;20056;-70
2022/06/05 10:54:21;;;;;;;3.28;3.00;;;19.40;99.90;;;;;;4208033;28;20080;-70
2022/06/05 10:56:41;;;;;;;6.43;3.33;;;19.30;99.90;;;;;;4213446;28;20058;-70
2022/06/05 10:59:05;;;;;;;6.47;3.08;;;19.30;99.90;;;;;;4208512;28;20163;-70
2022/06/05 11:01:12;;;;;;;5.32;3.70;;;19.20;99.90;;;;;;4209775;28;20048;-71
2022/06/05 11:03:44;;;;;;;4.97;3.15;;;19.20;99.90;;;;;;4209195;28;20249;-70
2022/06/05 11:05:50;;;;;;;8.23;3.13;;;19.20;99.90;;;;;;4200679;28;20118;-71
2022/06/05 11:08:16;;;;;;;3.58;3.05;;;19.20;99.90;;;;;;4208772;28;20911;-70
2022/06/05 11:15:52;;;;;;;6.22;3.40;;;19.00;99.90;;;;;;4207571;28;20052;-69
2022/06/05 11:18:06;;;;;;;6.05;3.85;;;19.00;99.90;;;;;;4207110;28;20057;-71
2022/06/05 11:20:21;;;;;;;4.43;2.63;;;19.00;99.90;;;;;;4210356;28;20056;-70
2022/06/05 11:22:26;;;;;;;9.57;3.47;;;19.00;99.90;;;;;;4207014;28;20048;-69
2022/06/05 11:24:33;;;;;;;5.03;3.28;;;19.00;99.90;;;;;;4212560;28;20064;-70